createdAt,value
2023-02-11T00:01:54.429Z,0.81
2023-02-11T00:04:39.585Z,0.77
2023-02-11T00:07:33.307Z,0.74
2023-02-11T00:10:25.828Z,0.69
2023-02-11T00:13:18.089Z,0.64
2023-02-11T00:16:13.672Z,0.57
2023-02-11T00:19:03.098Z,0.54
2023-02-11T00:21:38.505Z,0.51
2023-02-11T00:24:24.275Z,0.48
2023-02-11T00:27:16.680Z,0.45
2023-02-11T00:30:02.662Z,0.42
2023-02-11T00:33:03.368Z,0.39
2023-02-11T00:35:54.400Z,0.37
2023-02-11T00:38:48.040Z,0.33
2023-02-11T00:41:33.579Z,0.32
2023-02-11T00:44:15.204Z,0.31
2023-02-11T00:47:06.177Z,0.29
2023-02-11T00:49:59.283Z,0.23
2023-02-11T00:52:42.726Z,0.16
2023-02-11T00:55:35.640Z,0.09
2023-02-11T00:58:22.518Z,0.03
2023-02-11T01:01:08.988Z,-0.02
2023-02-11T01:04:02.761Z,-0.09
2023-02-11T01:06:39.680Z,-0.13
2023-02-11T01:09:24.568Z,-0.16
2023-02-11T01:12:08.368Z,-0.20
2023-02-11T01:15:00.878Z,-0.22
2023-02-11T01:17:51.723Z,-0.27
2023-02-11T01:20:44.188Z,-0.30
2023-02-11T01:23:36.398Z,-0.30
2023-02-11T01:26:28.917Z,-0.31
2023-02-11T01:29:04.929Z,-0.28
2023-02-11T01:31:40.263Z,-0.27
2023-02-11T01:34:31.168Z,-0.28
2023-02-11T01:37:05.845Z,-0.25
2023-02-11T01:39:58.268Z,-0.24
2023-02-11T01:42:51.255Z,-0.25
2023-02-11T01:45:58.510Z,-0.25
2023-02-11T01:48:54.415Z,-0.25
2023-02-11T01:51:52.846Z,-0.23
2023-02-11T01:55:20.699Z,-0.24
2023-02-11T01:58:13.243Z,-0.24
2023-02-11T02:01:04.881Z,-0.30
2023-02-11T02:03:50.539Z,-0.32
2023-02-11T02:06:37.325Z,-0.36
2023-02-11T02:09:35.808Z,-0.39
2023-02-11T02:12:19.157Z,-0.42
2023-02-11T02:15:29.083Z,-0.44
2023-02-11T02:18:37.506Z,-0.43
2023-02-11T02:22:00.181Z,-0.37
2023-02-11T02:25:10.479Z,-0.31
2023-02-11T02:28:02.774Z,-0.29
2023-02-11T02:31:12.696Z,-0.28
2023-02-11T02:34:10.612Z,-0.24
2023-02-11T02:37:02.356Z,-0.24
2023-02-11T02:39:54.881Z,-0.30
2023-02-11T02:42:39.159Z,-0.35
2023-02-11T02:45:20.785Z,-0.42
2023-02-11T02:47:56.430Z,-0.47
2023-02-11T02:50:50.599Z,-0.49
2023-02-11T02:53:44.478Z,-0.53
2023-02-11T02:56:33.860Z,-0.57
2023-02-11T02:59:44.289Z,-0.64
2023-02-11T03:02:36.384Z,-0.66
2023-02-11T03:05:40.225Z,-0.68
2023-02-11T03:08:24.542Z,-0.67
2023-02-11T03:11:11.044Z,-0.67
2023-02-11T03:13:50.764Z,-0.68
2023-02-11T03:16:39.411Z,-0.70
2023-02-11T03:21:20.008Z,-0.72
2023-02-11T03:24:18.414Z,-0.73
2023-02-11T03:27:10.540Z,-0.70
2023-02-11T03:30:00.050Z,-0.67
2023-02-11T03:32:42.995Z,-0.66
2023-02-11T03:35:40.770Z,-0.67
2023-02-11T03:38:36.637Z,-0.66
2023-02-11T03:41:26.434Z,-0.65
2023-02-11T03:44:11.717Z,-0.64
2023-02-11T03:46:53.888Z,-0.62
2023-02-11T03:49:50.718Z,-0.61
2023-02-11T03:52:38.218Z,-0.61
2023-02-11T03:55:26.964Z,-0.61
2023-02-11T03:58:11.449Z,-0.65
2023-02-11T04:00:58.622Z,-0.66
2023-02-11T04:03:39.964Z,-0.65
2023-02-11T04:06:21.240Z,-0.62
2023-02-11T04:08:58.307Z,-0.60
2023-02-11T04:11:34.222Z,-0.54
2023-02-11T04:14:26.709Z,-0.48
2023-02-11T04:17:12.391Z,-0.48
2023-02-11T04:19:55.545Z,-0.49
2023-02-11T04:22:48.240Z,-0.51
2023-02-11T04:25:27.875Z,-0.53
2023-02-11T04:28:11.377Z,-0.54
2023-02-11T04:30:46.469Z,-0.54
2023-02-11T04:33:38.521Z,-0.53
2023-02-11T04:36:21.690Z,-0.54
2023-02-11T04:39:05.253Z,-0.52
2023-02-11T04:41:50.148Z,-0.49
2023-02-11T04:44:35.303Z,-0.49
2023-02-11T04:47:12.739Z,-0.54
2023-02-11T04:50:05.254Z,-0.58
2023-02-11T04:52:47.706Z,-0.61
2023-02-11T04:55:22.851Z,-0.63
2023-02-11T04:58:13.622Z,-0.65
2023-02-11T05:00:48.988Z,-0.69
2023-02-11T05:03:32.391Z,-0.75
2023-02-11T05:06:13.186Z,-0.80
2023-02-11T05:09:05.730Z,-0.80
2023-02-11T05:11:43.226Z,-0.80
2023-02-11T05:14:18.468Z,-0.80
2023-02-11T05:17:10.887Z,-0.81
2023-02-11T05:19:45.912Z,-0.81
2023-02-11T05:22:29.681Z,-0.80
2023-02-11T05:25:22.275Z,-0.75
2023-02-11T05:28:09.052Z,-0.67
2023-02-11T05:31:01.387Z,-0.59
2023-02-11T05:33:53.977Z,-0.54
2023-02-11T05:36:39.633Z,-0.50
2023-02-11T05:39:35.467Z,-0.45
2023-02-11T05:42:30.199Z,-0.39
2023-02-11T05:45:22.908Z,-0.32
2023-02-11T05:48:13.797Z,-0.26
2023-02-11T05:50:55.269Z,-0.22
2023-02-11T05:53:30.598Z,-0.15
2023-02-11T05:56:09.547Z,-0.12
2023-02-11T05:58:54.481Z,-0.09
2023-02-11T06:01:47.252Z,-0.09
2023-02-11T06:04:33.332Z,-0.09
2023-02-11T06:07:10.418Z,-0.07
2023-02-11T06:09:52.916Z,-0.05
2023-02-11T06:12:37.489Z,-0.02
2023-02-11T06:15:29.910Z,0.02
2023-02-11T06:18:20.721Z,0.05
2023-02-11T06:21:14.161Z,0.08
2023-02-11T06:23:58.019Z,0.13
2023-02-11T06:26:43.101Z,0.16
2023-02-11T06:29:23.935Z,0.17
2023-02-11T06:32:08.663Z,0.16
2023-02-11T06:34:57.176Z,0.17
2023-02-11T06:37:43.477Z,0.16
2023-02-11T06:40:20.559Z,0.17
2023-02-11T06:42:57.445Z,0.19
2023-02-11T06:45:40.329Z,0.21
2023-02-11T06:48:24.980Z,0.22
2023-02-11T06:51:11.402Z,0.25
2023-02-11T06:53:47.958Z,0.25
2023-02-11T06:56:27.566Z,0.23
2023-02-11T06:59:20.653Z,0.23
2023-02-11T07:02:05.814Z,0.26
2023-02-11T07:04:52.106Z,0.28
2023-02-11T07:07:32.380Z,0.31
2023-02-11T07:10:13.179Z,0.33
2023-02-11T07:13:04.504Z,0.37
2023-02-11T07:15:55.769Z,0.44
2023-02-11T07:18:37.327Z,0.51
2023-02-11T07:21:29.958Z,0.58
2023-02-11T07:24:11.089Z,0.64
2023-02-11T07:26:47.683Z,0.69
2023-02-11T07:29:22.527Z,0.73
2023-02-11T07:32:06.832Z,0.80
2023-02-11T07:34:52.326Z,0.89
2023-02-11T07:37:45.011Z,0.91
2023-02-11T07:40:31.762Z,0.93
2023-02-11T07:43:24.780Z,0.94
2023-02-11T07:46:19.310Z,0.95
2023-02-11T07:49:12.488Z,0.98
2023-02-11T07:52:04.954Z,1.01
2023-02-11T07:54:56.167Z,1.05
2023-02-11T07:57:43.007Z,1.08
2023-02-11T08:00:35.466Z,1.15
2023-02-11T08:03:22.223Z,1.18
2023-02-11T08:06:20.269Z,1.19
2023-02-11T08:09:17.765Z,1.20
2023-02-11T08:12:11.018Z,1.20
2023-02-11T08:14:45.593Z,1.21
2023-02-11T08:17:39.211Z,1.25
2023-02-11T08:20:25.234Z,1.30
2023-02-11T08:23:18.264Z,1.37
2023-02-11T08:26:10.641Z,1.45
2023-02-11T08:29:08.344Z,1.51
2023-02-11T08:32:01.106Z,1.60
2023-02-11T08:34:55.050Z,1.68
2023-02-11T08:37:47.612Z,1.77
2023-02-11T08:40:40.128Z,1.83
2023-02-11T08:43:35.027Z,1.88
2023-02-11T08:46:30.846Z,1.96
2023-02-11T08:49:24.023Z,2.04
2023-02-11T08:52:09.536Z,2.13
2023-02-11T08:55:02.941Z,2.23
2023-02-11T08:57:55.655Z,2.33
2023-02-11T09:00:37.776Z,2.39
2023-02-11T09:03:24.098Z,2.44
2023-02-11T09:06:11.301Z,2.49
2023-02-11T09:08:58.840Z,2.54
2023-02-11T09:11:46.555Z,2.58
2023-02-11T09:14:38.892Z,2.60
2023-02-11T09:17:26.050Z,2.63
2023-02-11T09:20:17.489Z,2.66
2023-02-11T09:23:03.225Z,2.67
2023-02-11T09:25:54.496Z,2.71
2023-02-11T09:28:34.007Z,2.76
2023-02-11T09:31:28.986Z,2.82
2023-02-11T09:34:24.007Z,2.85
2023-02-11T09:37:06.802Z,2.91
2023-02-11T09:39:59.286Z,3.00
2023-02-11T09:42:56.789Z,3.12
2023-02-11T09:45:58.147Z,3.26
2023-02-11T09:48:53.077Z,3.38
2023-02-11T09:51:44.828Z,3.52
2023-02-11T09:54:46.687Z,3.65
2023-02-11T09:57:39.716Z,3.76
2023-02-11T10:00:29.870Z,3.86
2023-02-11T10:03:23.330Z,3.97
2023-02-11T10:06:37.325Z,4.05
2023-02-11T10:09:45.657Z,4.16
2023-02-11T10:13:10.682Z,4.26
2023-02-11T10:16:12.157Z,4.38
2023-02-11T10:19:22.429Z,4.50
2023-02-11T10:22:13.546Z,4.64
2023-02-11T10:25:19.684Z,4.75
2023-02-11T10:28:17.404Z,4.87
2023-02-11T10:31:01.859Z,4.94
2023-02-11T10:33:52.809Z,5.00
2023-02-11T10:36:46.645Z,5.04
2023-02-11T10:39:32.059Z,5.09
2023-02-11T10:42:13.618Z,5.15
2023-02-11T10:45:04.560Z,5.20
2023-02-11T10:47:46.948Z,5.24
2023-02-11T10:50:39.585Z,5.27
2023-02-11T10:53:33.797Z,5.30
2023-02-11T10:56:20.999Z,5.33
2023-02-11T10:59:06.714Z,5.37
2023-02-11T11:02:03.979Z,5.37
2023-02-11T11:04:49.107Z,5.37
2023-02-11T11:07:54.087Z,5.33
2023-02-11T11:10:48.681Z,5.29
2023-02-11T11:13:35.624Z,5.25
2023-02-11T11:16:23.256Z,5.24
2023-02-11T11:19:21.982Z,5.23
2023-02-11T11:22:08.621Z,5.22
2023-02-11T11:25:01.667Z,5.20
2023-02-11T11:27:58.189Z,5.20
2023-02-11T11:30:54.179Z,5.21
2023-02-11T11:33:49.327Z,5.20
2023-02-11T11:36:39.720Z,5.22
2023-02-11T11:39:28.933Z,5.24
2023-02-11T11:42:32.887Z,5.23
2023-02-11T11:45:28.685Z,5.24
2023-02-11T11:48:28.023Z,5.24
2023-02-11T11:51:22.605Z,5.19
2023-02-11T11:54:18.891Z,5.13
2023-02-11T11:57:38.264Z,5.11
2023-02-11T12:00:37.481Z,5.10
2023-02-11T12:04:08.152Z,5.11
2023-02-11T12:07:13.148Z,5.10
2023-02-11T12:09:57.753Z,5.08
2023-02-11T12:12:57.889Z,5.08
2023-02-11T12:16:02.557Z,5.07
2023-02-11T12:19:32.822Z,5.06
2023-02-11T12:22:32.291Z,5.04
2023-02-11T12:25:29.537Z,5.03
2023-02-11T12:28:30.753Z,5.01
2023-02-11T12:31:28.975Z,4.98
2023-02-11T12:34:32.387Z,4.95
2023-02-11T12:37:25.980Z,4.91
2023-02-11T12:40:18.857Z,4.88
2023-02-11T12:43:21.668Z,4.86
2023-02-11T12:46:35.627Z,4.84
2023-02-11T12:49:48.894Z,4.78
2023-02-11T12:52:49.824Z,4.75
2023-02-11T12:55:47.636Z,4.72
2023-02-11T12:58:45.546Z,4.69
2023-02-11T13:01:41.059Z,4.65
2023-02-11T13:04:40.094Z,4.64
2023-02-11T13:07:29.213Z,4.64
2023-02-11T13:10:31.286Z,4.66
2023-02-11T13:13:19.972Z,4.70
2023-02-11T13:16:36.450Z,4.74
2023-02-11T13:19:27.764Z,4.79
2023-02-11T13:22:25.589Z,4.85
2023-02-11T13:25:30.780Z,4.90
2023-02-11T13:28:37.783Z,4.92
2023-02-11T13:31:30.786Z,4.92
2023-02-11T13:35:01.520Z,4.91
2023-02-11T13:37:53.998Z,4.90
2023-02-11T13:40:59.008Z,4.90
2023-02-11T13:43:44.802Z,4.87
2023-02-11T13:46:31.148Z,4.86
2023-02-11T13:49:25.723Z,4.83
2023-02-11T13:52:28.228Z,4.79
2023-02-11T13:55:24.243Z,4.78
2023-02-11T13:58:36.481Z,4.78
2023-02-11T14:01:42.519Z,4.78
2023-02-11T14:04:51.401Z,4.77
2023-02-11T14:08:37.595Z,4.76
2023-02-11T14:11:49.875Z,4.74
2023-02-11T14:15:02.995Z,4.73
2023-02-11T14:17:56.926Z,4.71
2023-02-11T14:20:50.938Z,4.71
2023-02-11T14:23:37.631Z,4.71
2023-02-11T14:26:42.958Z,4.70
2023-02-11T14:29:33.668Z,4.69
2023-02-11T14:32:41.008Z,4.68
2023-02-11T14:35:40.499Z,4.67
2023-02-11T14:38:31.268Z,4.66
2023-02-11T14:41:22.162Z,4.64
2023-02-11T14:44:19.058Z,4.62
2023-02-11T14:47:18.625Z,4.60
2023-02-11T14:50:27.066Z,4.58
2023-02-11T14:53:22.725Z,4.55
2023-02-11T14:56:22.933Z,4.51
2023-02-11T14:59:17.613Z,4.48
2023-02-11T15:02:23.690Z,4.45
2023-02-11T15:05:29.095Z,4.44
2023-02-11T15:08:21.840Z,4.41
2023-02-11T15:11:18.974Z,4.40
2023-02-11T15:14:18.749Z,4.38
2023-02-11T15:17:05.428Z,4.36
2023-02-11T15:19:53.881Z,4.34
2023-02-11T15:22:52.426Z,4.31
2023-02-11T15:25:51.245Z,4.29
2023-02-11T15:28:52.695Z,4.23
2023-02-11T15:31:44.911Z,4.17
2023-02-11T15:34:38.054Z,4.12
2023-02-11T15:37:27.863Z,4.06
2023-02-11T15:40:29.038Z,4.02
2023-02-11T15:43:21.612Z,3.95
2023-02-11T15:46:14.996Z,3.87
2023-02-11T15:49:08.635Z,3.80
2023-02-11T15:52:04.047Z,3.77
2023-02-11T15:55:01.709Z,3.75
2023-02-11T15:57:58.690Z,3.74
2023-02-11T16:00:54.706Z,3.73
2023-02-11T16:03:52.615Z,3.71
2023-02-11T16:06:48.004Z,3.70
2023-02-11T16:09:40.036Z,3.70
2023-02-11T16:12:35.206Z,3.69
2023-02-11T16:15:42.809Z,3.68
2023-02-11T16:18:40.429Z,3.64
2023-02-11T16:21:36.352Z,3.62
2023-02-11T16:24:31.730Z,3.61
2023-02-11T16:27:28.655Z,3.57
2023-02-11T16:30:34.413Z,3.52
2023-02-11T16:33:16.739Z,3.48
2023-02-11T16:36:17.127Z,3.44
2023-02-11T16:39:09.929Z,3.40
2023-02-11T16:42:00.979Z,3.38
2023-02-11T16:44:53.629Z,3.34
2023-02-11T16:47:42.648Z,3.31
2023-02-11T16:50:26.613Z,3.27
2023-02-11T16:53:23.008Z,3.26
2023-02-11T16:56:18.828Z,3.25
2023-02-11T16:59:09.708Z,3.24
2023-02-11T17:02:01.214Z,3.24
2023-02-11T17:04:53.503Z,3.23
2023-02-11T17:07:46.388Z,3.21
2023-02-11T17:10:38.943Z,3.21
2023-02-11T17:13:29.803Z,3.19
2023-02-11T17:16:31.164Z,3.18
2023-02-11T17:19:23.814Z,3.17
2023-02-11T17:22:16.242Z,3.17
2023-02-11T17:25:10.638Z,3.16
2023-02-11T17:27:56.306Z,3.17
2023-02-11T17:30:48.792Z,3.19
2023-02-11T17:33:41.486Z,3.22
2023-02-11T17:36:34.355Z,3.22
2023-02-11T17:39:27.724Z,3.22
2023-02-11T17:42:28.738Z,3.22
2023-02-11T17:45:21.185Z,3.23
2023-02-11T17:48:09.322Z,3.23
2023-02-11T17:50:55.016Z,3.25
2023-02-11T17:54:08.740Z,3.25
2023-02-11T17:57:14.433Z,3.25
2023-02-11T17:59:50.756Z,3.27
2023-02-11T18:02:53.804Z,3.27
2023-02-11T18:06:14.163Z,3.27
2023-02-11T18:09:02.167Z,3.28
2023-02-11T18:11:57.805Z,3.28
2023-02-11T18:14:52.630Z,3.29
2023-02-11T18:17:45.545Z,3.30
2023-02-11T18:20:38.053Z,3.31
2023-02-11T18:23:35.024Z,3.32
2023-02-11T18:26:28.300Z,3.32
2023-02-11T18:29:14.596Z,3.35
2023-02-11T18:32:01.516Z,3.36
2023-02-11T18:35:02.461Z,3.39
2023-02-11T18:37:54.417Z,3.42
2023-02-11T18:40:49.785Z,3.42
2023-02-11T18:43:43.182Z,3.42
2023-02-11T18:46:35.793Z,3.42
2023-02-11T18:49:26.559Z,3.42
2023-02-11T18:52:09.143Z,3.43
2023-02-11T18:55:02.953Z,3.45
2023-02-11T18:58:09.179Z,3.48
2023-02-11T19:00:59.995Z,3.50
2023-02-11T19:04:10.041Z,3.53
2023-02-11T19:07:03.460Z,3.56
2023-02-11T19:10:07.585Z,3.58
2023-02-11T19:12:59.848Z,3.60
2023-02-11T19:15:58.352Z,3.62
2023-02-11T19:19:01.892Z,3.64
2023-02-11T19:21:47.663Z,3.66
2023-02-11T19:24:33.294Z,3.68
2023-02-11T19:28:13.957Z,3.71
2023-02-11T19:31:28.869Z,3.73
2023-02-11T19:35:06.729Z,3.75
2023-02-11T19:37:53.845Z,3.76
2023-02-11T19:44:13.571Z,3.79
2023-02-11T19:47:18.037Z,3.80
2023-02-11T19:49:56.911Z,3.80
2023-02-11T19:53:39.326Z,3.82
2023-02-11T19:56:45.674Z,3.84
2023-02-11T19:59:33.312Z,3.86
2023-02-11T20:02:14.367Z,3.89
2023-02-11T20:05:08.706Z,3.92
2023-02-11T20:07:51.023Z,3.94
2023-02-11T20:10:43.219Z,3.97
2023-02-11T20:13:29.839Z,4.00
2023-02-11T20:16:26.989Z,4.02
2023-02-11T20:19:26.850Z,4.06
2023-02-11T20:22:19.570Z,4.09
2023-02-11T20:25:13.605Z,4.12
2023-02-11T20:28:06.500Z,4.15
2023-02-11T20:30:59.516Z,4.16
2023-02-11T20:33:42.729Z,4.18
2023-02-11T20:36:38.723Z,4.20
2023-02-11T20:39:22.886Z,4.21
2023-02-11T20:42:05.307Z,4.22
2023-02-11T20:44:58.133Z,4.22
2023-02-11T20:47:50.526Z,4.22
2023-02-11T20:50:41.461Z,4.22
2023-02-11T20:53:35.342Z,4.20
2023-02-11T20:56:30.061Z,4.22
2023-02-11T20:59:21.079Z,4.21
2023-02-11T21:02:13.615Z,4.22
2023-02-11T21:04:55.504Z,4.24
2023-02-11T21:07:48.412Z,4.24
2023-02-11T21:10:40.768Z,4.25
2023-02-11T21:13:33.995Z,4.26
2023-02-11T21:16:24.744Z,4.27
2023-02-11T21:19:20.371Z,4.27
2023-02-11T21:22:12.773Z,4.27
2023-02-11T21:25:08.704Z,4.28
2023-02-11T21:28:00.708Z,4.28
2023-02-11T21:30:46.703Z,4.29
2023-02-11T21:33:40.479Z,4.30
2023-02-11T21:36:41.276Z,4.30
2023-02-11T21:39:33.628Z,4.30
2023-02-11T21:42:25.939Z,4.30
2023-02-11T21:45:18.639Z,4.30
2023-02-11T21:48:11.155Z,4.30
2023-02-11T21:50:56.424Z,4.31
2023-02-11T21:53:47.218Z,4.31
2023-02-11T21:56:39.659Z,4.31
2023-02-11T21:59:32.915Z,4.32
2023-02-11T22:02:25.606Z,4.32
2023-02-11T22:05:18.202Z,4.32
2023-02-11T22:08:08.902Z,4.33
2023-02-11T22:11:06.302Z,4.32
2023-02-11T22:13:48.927Z,4.32
2023-02-11T22:16:41.547Z,4.31
2023-02-11T22:19:34.327Z,4.31
2023-02-11T22:22:26.919Z,4.30
2023-02-11T22:25:17.811Z,4.29
2023-02-11T22:28:10.140Z,4.27
2023-02-11T22:31:02.993Z,4.29
2023-02-11T22:33:54.593Z,4.30
2023-02-11T22:36:47.166Z,4.29
2023-02-11T22:39:39.664Z,4.29
2023-02-11T22:42:25.346Z,4.28
2023-02-11T22:45:17.993Z,4.28
2023-02-11T22:48:08.687Z,4.28
2023-02-11T22:51:07.129Z,4.27
2023-02-11T22:54:01.826Z,4.26
2023-02-11T22:56:54.535Z,4.25
2023-02-11T22:59:45.905Z,4.25
2023-02-11T23:02:25.736Z,4.25
2023-02-11T23:05:09.697Z,4.26
2023-02-11T23:08:00.780Z,4.24
2023-02-11T23:10:39.183Z,4.27
2023-02-11T23:13:17.358Z,4.29
2023-02-11T23:16:09.477Z,4.32
2023-02-11T23:18:53.265Z,4.31
2023-02-11T23:21:45.750Z,4.31
2023-02-11T23:24:37.635Z,4.31
2023-02-11T23:27:29.934Z,4.31
2023-02-11T23:30:21.888Z,4.33
2023-02-11T23:33:14.180Z,4.31
2023-02-11T23:36:05.690Z,4.31
2023-02-11T23:38:56.480Z,4.31
2023-02-11T23:41:37.845Z,4.29
2023-02-11T23:44:30.536Z,4.31
2023-02-11T23:47:22.763Z,4.33
2023-02-11T23:50:16.730Z,4.35
2023-02-11T23:53:01.404Z,4.36
2023-02-11T23:55:45.724Z,4.37
2023-02-11T23:58:38.290Z,4.36
